CheckWX is a tool to help pilots better visualize weather data.  It is not intended as a substitute for an official pre-flight weather briefing.

21:50:20 UTC

KHLX METAR
Twin County Airport
Galax Hillsville, Virginia, USA
Current

15 mins ago

KHLX 192135Z AUTO 18004KT 10SM SCT033 18/12 A3029 RMK AO2 T01780115
Observed
Sep-19 @ 21:35 UTC
Wind
  • 180° at 4 KTS
Visibility
10 SM
Flight Rules
VFR
Cloud Levels
  • Scattered at 3,300' AGL
Temperature
18°C / 64°F
Dewpoint
12°C / 54°F
Humidity
68%
Altimeter
30.29" Hg
Pressure
1025.72 hPa
Previous

35 mins ago

KHLX 192115Z AUTO 18004KT 10SM OVC033 18/12 A3029 RMK AO2 T01750116
Observed
Sep-19 @ 21:15 UTC
Wind
  • 180° at 4 KTS
Visibility
10 SM
Flight Rules
VFR
Cloud Levels
  • Overcast at 3,300' AGL
Temperature
18°C / 64°F
Dewpoint
12°C / 54°F
Humidity
68%
Altimeter
30.29" Hg
Pressure
1025.72 hPa
Previous

55 mins ago

KHLX 192055Z AUTO 13003KT 10SM OVC035 18/12 A3029 RMK AO2 T01770119
Observed
Sep-19 @ 20:55 UTC
Wind
  • 130° at 3 KTS
Visibility
10 SM
Flight Rules
VFR
Cloud Levels
  • Overcast at 3,500' AGL
Temperature
18°C / 64°F
Dewpoint
12°C / 54°F
Humidity
68%
Altimeter
30.29" Hg
Pressure
1025.72 hPa